createdAt,value
2023-01-28T00:00:29.324Z,4.15
2023-01-28T00:05:21.096Z,4.63
2023-01-28T00:10:12.932Z,4.57
2023-01-28T00:15:05.858Z,4.75
2023-01-28T00:19:57.690Z,4.07
2023-01-28T00:24:49.478Z,4.60
2023-01-28T00:29:41.342Z,4.55
2023-01-28T00:34:33.373Z,4.38
2023-01-28T00:39:26.164Z,4.35
2023-01-28T00:44:18.418Z,4.07
2023-01-28T00:49:10.400Z,4.68
2023-01-28T00:54:02.200Z,4.22
2023-01-28T00:58:54.221Z,4.72
2023-01-28T01:03:46.630Z,4.40
2023-01-28T01:08:42.746Z,4.47
2023-01-28T01:13:35.093Z,4.22
2023-01-28T01:18:27.411Z,4.40
2023-01-28T01:23:19.182Z,4.53
2023-01-28T01:28:10.947Z,4.38
2023-01-28T01:33:02.690Z,4.13
2023-01-28T01:37:54.485Z,4.70
2023-01-28T01:42:46.275Z,4.88
2023-01-28T01:47:59.222Z,4.38
2023-01-28T01:52:54.459Z,4.43
2023-01-28T01:57:48.019Z,4.50
2023-01-28T02:02:42.294Z,4.15
2023-01-28T02:07:34.889Z,4.45
2023-01-28T02:12:35.290Z,4.90
2023-01-28T02:17:27.503Z,4.50
2023-01-28T02:22:50.431Z,5.03
2023-01-28T02:28:15.096Z,4.32
2023-01-28T02:33:22.564Z,4.50
2023-01-28T02:38:29.635Z,4.88
2023-01-28T02:43:51.240Z,4.53
2023-01-28T02:48:43.705Z,4.25
2023-01-28T02:53:46.927Z,4.53
2023-01-28T02:58:47.462Z,4.53
2023-01-28T03:04:05.079Z,4.50
2023-01-28T03:09:18.483Z,3.97
2023-01-28T03:14:29.411Z,4.68
2023-01-28T03:19:40.517Z,4.70
2023-01-28T03:24:54.719Z,4.95
2023-01-28T03:30:06.516Z,5.05
2023-01-28T03:35:17.221Z,4.43
2023-01-28T03:40:10.415Z,5.03
2023-01-28T03:45:04.750Z,4.87
2023-01-28T03:49:59.929Z,4.60
2023-01-28T03:54:53.953Z,4.18
2023-01-28T03:59:46.371Z,4.47
2023-01-28T04:04:39.691Z,4.65
2023-01-28T04:09:32.331Z,4.55
2023-01-28T04:14:46.824Z,4.90
2023-01-28T04:19:45.848Z,4.28
2023-01-28T04:24:37.990Z,4.78
2023-01-28T04:29:30.095Z,4.90
2023-01-28T04:34:26.615Z,4.50
2023-01-28T04:39:27.911Z,4.38
2023-01-28T04:49:59.436Z,4.70
2023-01-28T04:55:04.034Z,4.43
2023-01-28T04:59:55.908Z,4.50
2023-01-28T05:04:47.750Z,4.90
2023-01-28T05:09:54.965Z,4.32
2023-01-28T05:14:46.834Z,4.32
2023-01-28T05:19:43.740Z,4.80
2023-01-28T05:24:42.482Z,4.35
2023-01-28T05:29:34.249Z,4.45
2023-01-28T05:34:26.075Z,4.50
2023-01-28T05:39:19.625Z,3.90
2023-01-28T05:44:11.465Z,4.60
2023-01-28T05:49:22.315Z,4.97
2023-01-28T05:54:36.348Z,4.35
2023-01-28T05:59:28.459Z,4.57
2023-01-28T06:04:22.197Z,4.28
2023-01-28T06:09:14.511Z,5.13
2023-01-28T06:14:06.646Z,4.60
2023-01-28T06:19:31.173Z,5.65
2023-01-28T06:24:23.171Z,5.22
2023-01-28T06:29:15.469Z,4.68
2023-01-28T06:34:07.297Z,5.53
2023-01-28T06:38:59.138Z,5.15
2023-01-28T06:43:50.907Z,5.15
2023-01-28T06:48:42.738Z,4.60
2023-01-28T06:53:34.561Z,4.90
2023-01-28T06:58:26.535Z,5.07
2023-01-28T07:03:18.305Z,4.85
2023-01-28T07:08:10.128Z,5.30
2023-01-28T07:13:01.983Z,5.10
2023-01-28T07:17:53.739Z,4.75
2023-01-28T07:22:46.453Z,5.25
2023-01-28T07:27:38.221Z,4.80
2023-01-28T07:32:29.976Z,5.47
2023-01-28T07:37:21.932Z,5.00
2023-01-28T07:42:13.923Z,5.43
2023-01-28T07:47:12.069Z,5.63
2023-01-28T07:52:04.015Z,5.07
2023-01-28T07:56:55.867Z,4.95
2023-01-28T08:01:47.628Z,4.90
2023-01-28T08:06:39.380Z,4.93
2023-01-28T08:11:31.173Z,5.28
2023-01-28T08:16:22.960Z,5.50
2023-01-28T08:21:14.812Z,5.03
2023-01-28T08:26:07.119Z,5.20
2023-01-28T08:31:02.192Z,5.35
2023-01-28T08:35:54.088Z,5.25
2023-01-28T08:40:46.693Z,4.88
2023-01-28T08:45:39.724Z,5.30
2023-01-28T08:50:34.789Z,5.28
2023-01-28T08:55:27.688Z,5.20
2023-01-28T09:00:20.141Z,5.60
2023-01-28T09:05:12.336Z,5.18
2023-01-28T09:10:05.044Z,5.20
2023-01-28T09:14:58.059Z,4.90
2023-01-28T09:19:50.664Z,5.32
2023-01-28T09:24:42.546Z,5.07
2023-01-28T09:29:35.067Z,5.75
2023-01-28T09:34:26.891Z,5.50
2023-01-28T09:39:18.785Z,5.00
2023-01-28T09:44:42.426Z,5.82
2023-01-28T09:49:47.703Z,4.43
2023-01-28T09:54:46.521Z,5.15
2023-01-28T09:59:38.441Z,4.93
2023-01-28T10:04:37.442Z,5.65
2023-01-28T10:09:54.039Z,4.38
2023-01-28T10:15:11.145Z,4.95
2023-01-28T10:20:07.091Z,4.75
2023-01-28T10:25:06.388Z,4.68
2023-01-28T10:30:00.188Z,5.75
2023-01-28T10:34:53.468Z,5.25
2023-01-28T10:39:45.739Z,4.53
2023-01-28T10:44:41.708Z,4.80
2023-01-28T10:49:39.418Z,5.07
2023-01-28T10:54:31.270Z,5.10
2023-01-28T10:59:27.413Z,5.28
2023-01-28T11:04:26.659Z,5.28
2023-01-28T11:09:23.915Z,4.38
2023-01-28T11:14:23.741Z,5.53
2023-01-28T11:19:16.002Z,5.13
2023-01-28T11:24:15.445Z,5.60
2023-01-28T11:29:07.939Z,4.85
2023-01-28T11:34:00.988Z,5.20
2023-01-28T11:39:05.558Z,5.70
2023-01-28T11:43:59.129Z,4.85
2023-01-28T11:54:03.269Z,5.25
2023-01-28T11:58:55.187Z,5.32
2023-01-28T12:04:45.710Z,4.68
2023-01-28T12:09:57.415Z,4.85
2023-01-28T12:15:02.823Z,4.97
2023-01-28T12:20:00.783Z,5.28
2023-01-28T12:25:15.585Z,5.18
2023-01-28T12:30:17.109Z,5.00
2023-01-28T12:35:17.983Z,5.05
2023-01-28T12:40:15.797Z,5.00
2023-01-28T12:45:42.159Z,5.22
2023-01-28T12:50:39.838Z,5.22
2023-01-28T12:56:24.247Z,5.10
2023-01-28T13:06:15.086Z,4.75
2023-01-28T13:11:16.303Z,5.10
2023-01-28T13:16:10.408Z,4.80
2023-01-28T13:21:03.758Z,4.80
2023-01-28T13:25:55.901Z,5.53
2023-01-28T13:30:49.770Z,4.82
2023-01-28T13:35:41.983Z,5.00
2023-01-28T13:40:34.346Z,4.53
2023-01-28T13:45:26.550Z,5.45
2023-01-28T13:50:24.480Z,5.05
2023-01-28T13:55:37.170Z,4.97
2023-01-28T14:01:15.504Z,4.68
2023-01-28T14:06:25.811Z,4.95
2023-01-28T14:11:56.181Z,4.70
2023-01-28T14:17:28.423Z,4.90
2023-01-28T14:22:21.230Z,4.80
2023-01-28T14:27:29.530Z,5.00
2023-01-28T14:32:27.161Z,4.38
2023-01-28T14:37:21.344Z,4.97
2023-01-28T14:42:19.423Z,4.88
2023-01-28T14:47:35.787Z,4.85
2023-01-28T14:52:38.219Z,4.75
2023-01-28T14:57:44.187Z,4.88
2023-01-28T15:02:44.758Z,4.72
2023-01-28T15:07:36.597Z,5.22
2023-01-28T15:12:28.725Z,5.15
2023-01-28T15:17:25.685Z,4.57
2023-01-28T15:22:17.947Z,4.80
2023-01-28T15:27:19.056Z,5.40
2023-01-28T15:32:26.844Z,5.55
2023-01-28T15:37:19.942Z,5.50
2023-01-28T15:42:22.025Z,4.72
2023-01-28T15:47:35.537Z,4.78
2023-01-28T15:52:39.493Z,4.88
2023-01-28T15:57:33.529Z,5.35
2023-01-28T16:02:25.333Z,4.97
2023-01-28T16:07:17.326Z,4.75
2023-01-28T16:12:13.106Z,4.97
2023-01-28T16:17:05.386Z,4.60
2023-01-28T16:21:57.245Z,4.65
2023-01-28T16:27:01.302Z,5.05
2023-01-28T16:31:53.456Z,4.82
2023-01-28T16:36:45.515Z,4.65
2023-01-28T16:41:43.116Z,5.20
2023-01-28T16:46:35.027Z,5.00
2023-01-28T16:51:28.575Z,4.85
2023-01-28T16:56:47.205Z,4.80
2023-01-28T17:01:35.943Z,4.90
2023-01-28T17:06:27.741Z,5.28
2023-01-28T17:11:19.537Z,4.72
2023-01-28T17:16:11.416Z,4.82
2023-01-28T17:21:06.805Z,4.97
2023-01-28T17:26:05.114Z,5.22
2023-01-28T17:30:56.929Z,5.88
2023-01-28T17:35:48.781Z,5.35
2023-01-28T17:40:40.842Z,5.07
2023-01-28T17:45:32.985Z,5.10
2023-01-28T17:50:24.966Z,5.47
2023-01-28T17:55:17.025Z,5.18
2023-01-28T18:00:10.705Z,4.88
2023-01-28T18:05:05.788Z,5.53
2023-01-28T18:09:57.656Z,5.22
2023-01-28T18:14:49.463Z,5.13
2023-01-28T18:19:41.292Z,5.95
2023-01-28T18:24:33.072Z,5.90
2023-01-28T18:29:28.245Z,4.75
2023-01-28T18:34:20.027Z,5.30
2023-01-28T18:39:13.092Z,5.60
2023-01-28T18:44:05.048Z,5.15
2023-01-28T18:48:57.549Z,5.32
2023-01-28T18:53:49.271Z,5.43
2023-01-28T18:58:41.121Z,5.30
2023-01-28T19:03:32.897Z,5.50
2023-01-28T19:08:24.775Z,5.88
2023-01-28T19:13:16.671Z,5.45
2023-01-28T19:18:08.529Z,5.38
2023-01-28T19:23:00.410Z,5.45
2023-01-28T19:27:53.809Z,5.88
2023-01-28T19:32:45.599Z,5.57
2023-01-28T19:37:37.365Z,5.47
2023-01-28T19:42:29.186Z,5.78
2023-01-28T19:47:21.308Z,5.65
2023-01-28T19:52:13.107Z,5.68
2023-01-28T19:57:05.009Z,5.82
2023-01-28T20:01:56.864Z,5.35
2023-01-28T20:06:49.137Z,5.90
2023-01-28T20:11:40.922Z,5.75
2023-01-28T20:16:34.247Z,6.10
2023-01-28T20:21:26.645Z,5.65
2023-01-28T20:26:21.328Z,5.95
2023-01-28T20:31:13.745Z,5.35
2023-01-28T20:36:10.373Z,6.18
2023-01-28T20:41:13.603Z,6.22
2023-01-28T20:46:07.996Z,5.93
2023-01-28T20:51:11.257Z,5.78
2023-01-28T20:56:04.013Z,5.63
2023-01-28T21:00:55.998Z,5.60
2023-01-28T21:05:48.192Z,5.63
2023-01-28T21:10:43.358Z,6.05
2023-01-28T21:15:35.225Z,7.07
2023-01-28T21:20:27.045Z,6.93
2023-01-28T21:25:19.213Z,6.68
2023-01-28T21:30:11.925Z,6.22
2023-01-28T21:35:04.145Z,5.90
2023-01-28T21:39:55.930Z,6.55
2023-01-28T21:44:47.996Z,6.80
2023-01-28T21:49:39.969Z,6.30
2023-01-28T21:54:33.426Z,6.75
2023-01-28T21:59:27.954Z,7.40
2023-01-28T22:04:20.402Z,8.95
2023-01-28T22:09:13.749Z,7.55
2023-01-28T22:18:57.549Z,7.68
2023-01-28T22:23:50.055Z,7.30
2023-01-28T22:28:41.862Z,7.35
2023-01-28T22:33:33.753Z,7.00
2023-01-28T22:38:25.517Z,6.78
2023-01-28T22:43:18.303Z,6.70
2023-01-28T22:48:10.082Z,7.30
2023-01-28T22:53:03.021Z,7.22
2023-01-28T22:57:54.797Z,6.73
2023-01-28T23:02:46.713Z,6.13
2023-01-28T23:07:38.815Z,6.95
2023-01-28T23:12:30.626Z,7.07
2023-01-28T23:17:40.833Z,7.50
2023-01-28T23:22:51.899Z,7.10
2023-01-28T23:27:43.980Z,7.65
2023-01-28T23:32:39.992Z,6.80
2023-01-28T23:37:32.441Z,7.32
2023-01-28T23:42:25.982Z,6.88
2023-01-28T23:52:10.072Z,6.65
2023-01-28T23:57:03.331Z,7.97
